Time;durP1;ratioP1;P1;durP2;ratioP2;P2;SDS_P1;SDS_P2;PMS_P1;PMS_P2;Temp;Humidity;BMP_temperature;BMP_pressure;BME280_temperature;BME280_humidity;BME280_pressure;Samples;Min_cycle;Max_cycle;Signal;HPM_P1;HPM_P2
2023/07/09 00:02:14;;;;;;;2.93;2.73;;;20.80;81.50;;;21.28;51.71;95385.88;4964356;28;20456;-66
2023/07/09 00:04:42;;;;;;;3.20;2.90;;;20.80;81.70;;;21.24;51.68;95376.56;4963605;28;20479;-61
2023/07/09 00:07:18;;;;;;;5.80;3.03;;;20.80;82.00;;;21.20;52.12;95376.13;4963649;28;20452;-68
2023/07/09 00:09:45;;;;;;;7.63;3.37;;;20.70;82.00;;;21.17;52.25;95371.16;4962819;28;20471;-61
2023/07/09 00:12:16;;;;;;;5.60;3.13;;;20.70;82.20;;;21.13;52.35;95367.22;4960321;28;20456;-66
2023/07/09 00:14:44;;;;;;;6.33;2.63;;;20.70;82.50;;;21.09;52.41;95368.66;4957004;28;20468;-60
2023/07/09 00:17:12;;;;;;;8.93;2.97;;;20.60;82.60;;;21.05;52.55;95365.53;4960040;28;20458;-67
2023/07/09 00:19:39;;;;;;;3.57;3.27;;;20.60;82.70;;;21.00;53.00;95362.59;4957162;28;20643;-68
2023/07/09 00:22:16;;;;;;;5.60;3.10;;;20.60;83.00;;;20.95;52.81;95365.03;4963374;28;20971;-61
2023/07/09 00:24:44;;;;;;;13.10;2.93;;;20.50;82.90;;;20.89;52.92;95374.63;4957600;28;20622;-62
2023/07/09 00:27:12;;;;;;;5.67;3.20;;;20.50;83.20;;;20.87;52.98;95370.50;4963627;28;20820;-66
2023/07/09 00:29:41;;;;;;;6.30;2.90;;;20.40;83.10;;;20.82;52.93;95367.56;4960090;28;20579;-61
2023/07/09 00:32:15;;;;;;;3.83;3.10;;;20.40;83.20;;;20.81;52.54;95372.09;4961481;28;20891;-67
2023/07/09 00:34:48;;;;;;;3.80;3.30;;;20.40;83.30;;;20.80;52.82;95374.97;4963955;28;20475;-65
2023/07/09 00:37:16;;;;;;;3.97;3.00;;;20.40;83.30;;;20.79;52.72;95363.44;4961492;28;20574;-68
2023/07/09 00:39:43;;;;;;;3.33;3.03;;;20.30;83.20;;;20.78;52.79;95357.25;4962740;28;20498;-62
2023/07/09 00:42:14;;;;;;;4.10;2.80;;;20.40;83.30;;;20.80;52.99;95358.91;4961440;28;20460;-66
2023/07/09 00:44:44;;;;;;;2.50;2.30;;;20.30;83.10;;;20.78;52.71;95351.91;4965895;28;20574;-67
2023/07/09 00:47:24;;;;;;;5.10;2.27;;;20.30;83.10;;;20.78;52.75;95349.22;4961544;28;20989;-61
2023/07/09 00:50:00;;;;;;;6.10;3.27;;;20.30;83.00;;;20.77;52.77;95350.28;4959484;28;20514;-67
2023/07/09 00:52:35;;;;;;;2.43;2.33;;;20.30;82.80;;;20.78;52.63;95335.88;4959319;28;20459;-67
2023/07/09 00:55:05;;;;;;;2.97;2.77;;;20.30;82.60;;;20.77;52.41;95341.41;4962058;28;20479;-60
2023/07/09 00:57:32;;;;;;;4.90;2.50;;;20.30;82.60;;;20.77;52.21;95344.06;4958747;28;20455;-68
2023/07/09 01:00:07;;;;;;;8.33;3.10;;;20.30;82.40;;;20.77;52.56;95344.94;4960404;28;20487;-68
2023/07/09 01:02:35;;;;;;;3.57;2.60;;;20.30;82.20;;;20.77;52.35;95341.41;4966109;28;20451;-65
2023/07/09 01:05:03;;;;;;;7.33;2.67;;;20.30;82.20;;;20.77;52.19;95338.72;4966053;28;21015;-66
2023/07/09 01:07:29;;;;;;;3.43;2.77;;;20.30;82.10;;;20.78;52.09;95348.41;4965919;28;20452;-66
2023/07/09 01:09:56;;;;;;;3.23;2.60;;;20.30;82.20;;;20.78;52.16;95341.22;4965998;28;20471;-60
2023/07/09 01:12:24;;;;;;;5.77;2.60;;;20.30;82.10;;;20.80;51.97;95337.53;4965680;28;20908;-61
2023/07/09 01:14:51;;;;;;;4.13;2.80;;;20.40;82.10;;;20.78;52.15;95338.53;4966040;28;20479;-67
2023/07/09 01:17:20;;;;;;;5.23;2.73;;;20.30;81.90;;;20.77;52.00;95331.56;4965591;28;21042;-66
2023/07/09 01:19:51;;;;;;;3.83;2.80;;;20.30;82.00;;;20.77;52.04;95336.91;4966125;28;20479;-64
2023/07/09 01:22:20;;;;;;;6.80;2.03;;;20.30;82.00;;;20.75;52.11;95338.91;4965821;28;20448;-61
2023/07/09 01:24:54;;;;;;;2.60;2.50;;;20.30;82.80;;;20.75;51.99;95327.41;4965533;28;20487;-61
2023/07/09 01:27:24;;;;;;;7.43;3.23;;;20.30;82.00;;;20.74;52.28;95328.41;4965367;28;20463;-61
2023/07/09 01:29:51;;;;;;;4.90;2.97;;;20.30;82.20;;;20.74;52.39;95329.28;4965670;28;20999;-67
2023/07/09 01:32:19;;;;;;;3.47;2.20;;;20.30;82.20;;;20.74;52.06;95329.28;4965568;28;20451;-67
2023/07/09 01:34:48;;;;;;;4.70;3.17;;;20.30;82.10;;;20.72;51.75;95325.13;4965954;28;20486;-60
2023/07/09 01:37:17;;;;;;;5.43;3.30;;;20.20;82.10;;;20.71;52.12;95329.66;4964694;28;20527;-61
2023/07/09 01:39:45;;;;;;;2.93;2.73;;;20.20;82.20;;;20.70;52.25;95330.66;4966040;28;21353;-67
2023/07/09 01:42:13;;;;;;;2.73;2.53;;;20.20;82.20;;;20.69;52.00;95326.31;4966327;28;20452;-61
2023/07/09 01:44:41;;;;;;;4.90;3.17;;;20.20;82.10;;;20.70;52.39;95332.50;4965323;28;20476;-63
2023/07/09 01:47:08;;;;;;;12.40;2.77;;;20.20;82.10;;;20.70;52.18;95335.19;4963827;28;20511;-61
2023/07/09 01:49:36;;;;;;;3.13;2.47;;;20.20;82.10;;;20.69;52.07;95347.72;4970209;28;20510;-67
2023/07/09 01:52:04;;;;;;;5.10;2.63;;;20.20;82.10;;;20.69;52.37;95347.72;4974464;28;20555;-66
2023/07/09 01:54:33;;;;;;;3.40;2.60;;;20.20;82.10;;;20.68;52.41;95346.06;4974217;28;21064;-67
2023/07/09 01:57:19;;;;;;;12.03;3.10;;;20.20;82.10;;;20.69;52.16;95342.34;4970235;28;20533;-61
2023/07/09 01:59:46;;;;;;;3.13;2.90;;;20.20;82.10;;;20.68;52.23;95340.72;4963893;28;20463;-61
2023/07/09 02:02:18;;;;;;;4.47;3.20;;;20.20;82.10;;;20.67;52.31;95344.41;4965836;28;20452;-62
2023/07/09 02:04:47;;;;;;;2.83;2.43;;;20.20;82.20;;;20.66;52.23;95345.41;4965852;28;20855;-62
2023/07/09 02:07:15;;;;;;;3.03;2.83;;;20.20;82.10;;;20.65;52.14;95346.44;4965023;28;20462;-61
2023/07/09 02:09:42;;;;;;;4.00;3.00;;;20.20;82.10;;;20.63;52.14;95348.44;4961479;28;20482;-65
2023/07/09 02:12:11;;;;;;;7.60;3.30;;;20.10;82.30;;;20.63;52.45;95347.63;4964881;28;20456;-66
2023/07/09 02:14:39;;;;;;;4.30;2.83;;;20.20;82.40;;;20.60;52.42;95343.47;4965027;28;20483;-67
2023/07/09 02:17:07;;;;;;;5.13;3.10;;;20.10;82.50;;;20.59;52.44;95348.00;4961984;28;20491;-60
2023/07/09 02:19:35;;;;;;;6.10;2.90;;;20.10;82.40;;;20.55;52.61;95345.91;4961645;28;20547;-61
2023/07/09 02:22:02;;;;;;;6.90;2.87;;;20.10;82.60;;;20.52;52.61;95343.59;4965244;28;20460;-67
2023/07/09 02:24:29;;;;;;;3.63;2.87;;;20.00;82.70;;;20.50;52.75;95349.13;4965275;28;20487;-60
2023/07/09 02:26:57;;;;;;;5.80;3.17;;;20.00;82.80;;;20.45;52.98;95350.72;4965415;28;21035;-60
2023/07/09 02:29:24;;;;;;;3.50;3.20;;;20.00;83.00;;;20.40;53.25;95360.16;4965304;28;20483;-66
2023/07/09 02:31:55;;;;;;;3.80;2.63;;;20.00;83.70;;;20.33;53.29;95353.88;4965004;28;20998;-65
2023/07/09 02:34:25;;;;;;;16.77;4.43;;;19.90;83.60;;;20.28;53.47;95358.97;4964319;28;20532;-64
2023/07/09 02:36:53;;;;;;;5.37;3.50;;;19.90;83.80;;;20.22;53.77;95367.75;4964655;28;20491;-60
2023/07/09 02:39:20;;;;;;;5.07;3.40;;;19.80;84.10;;;20.16;54.01;95369.31;4961237;28;20483;-62
2023/07/09 02:41:47;;;;;;;14.60;3.80;;;19.70;84.30;;;20.10;53.60;95367.38;4965228;28;20505;-68
2023/07/09 02:44:15;;;;;;;7.23;2.83;;;19.70;84.60;;;20.05;53.93;95378.63;4964632;28;20543;-61
2023/07/09 02:46:42;;;;;;;6.60;3.10;;;19.60;84.80;;;20.00;54.18;95378.38;4962385;28;20456;-61
2023/07/09 02:49:12;;;;;;;4.23;3.93;;;19.60;85.10;;;19.94;54.20;95379.09;4964603;28;20532;-61
2023/07/09 02:51:39;;;;;;;6.90;3.30;;;19.50;85.30;;;19.90;54.76;95388.50;4964567;28;20529;-61
2023/07/09 02:54:07;;;;;;;9.07;3.60;;;19.50;85.60;;;19.85;55.25;95393.56;4961119;28;20517;-61
2023/07/09 02:56:34;;;;;;;9.97;3.40;;;19.40;85.90;;;19.79;55.28;95400.47;4964645;28;21015;-67
2023/07/09 02:59:01;;;;;;;4.07;2.87;;;19.40;86.20;;;19.74;55.38;95394.81;4963887;28;20463;-68
2023/07/09 03:01:29;;;;;;;5.70;3.13;;;19.30;86.60;;;19.69;55.83;95408.72;4958030;28;20452;-67
2023/07/09 03:03:56;;;;;;;15.73;3.60;;;19.30;87.20;;;19.64;55.54;95400.44;4961307;28;20479;-68
2023/07/09 03:06:25;;;;;;;3.40;2.73;;;19.20;87.30;;;19.58;56.08;95403.84;4959681;28;20456;-69
2023/07/09 03:08:52;;;;;;;11.13;3.43;;;19.20;87.70;;;19.53;56.60;95417.72;4960659;28;20459;-60
2023/07/09 03:11:20;;;;;;;5.70;3.60;;;19.10;88.00;;;19.45;55.93;95407.13;4957734;28;20460;-60
2023/07/09 03:13:47;;;;;;;3.97;3.60;;;19.10;88.20;;;19.41;56.95;95402.31;4960643;28;20459;-67
2023/07/09 03:16:15;;;;;;;4.73;3.87;;;19.10;88.60;;;19.34;56.95;95410.22;4960198;28;20562;-62
2023/07/09 03:18:42;;;;;;;4.70;2.90;;;19.00;88.50;;;19.29;56.62;95404.63;4960268;28;20474;-62
2023/07/09 03:21:10;;;;;;;11.37;3.33;;;18.90;88.80;;;19.26;56.77;95412.97;4956852;28;20510;-61
2023/07/09 03:23:38;;;;;;;12.07;4.30;;;18.80;89.10;;;19.21;57.25;95402.84;4960618;28;20471;-65
2023/07/09 03:26:06;;;;;;;10.70;4.17;;;18.80;89.30;;;19.19;57.25;95412.84;4959707;28;20510;-62
2023/07/09 03:28:33;;;;;;;4.07;3.43;;;18.80;89.80;;;19.15;57.13;95411.56;4960561;28;20520;-63
2023/07/09 03:31:00;;;;;;;5.10;3.77;;;18.80;89.70;;;19.12;57.55;95409.28;4957837;28;20475;-67
2023/07/09 03:33:27;;;;;;;5.93;3.17;;;18.70;89.90;;;19.08;57.64;95408.78;4955420;28;20455;-66
2023/07/09 03:35:55;;;;;;;8.43;3.43;;;18.70;90.00;;;19.05;57.44;95411.81;4962025;28;20530;-61
2023/07/09 03:38:22;;;;;;;7.27;3.90;;;18.70;90.10;;;19.05;57.93;95409.13;4964025;28;21373;-67
2023/07/09 03:40:52;;;;;;;3.03;2.77;;;18.70;90.30;;;19.05;58.08;95411.81;4956946;28;20491;-67
2023/07/09 03:43:20;;;;;;;8.43;3.67;;;18.60;90.40;;;19.05;57.75;95411.81;4957817;28;20553;-61
2023/07/09 03:45:47;;;;;;;8.93;3.57;;;18.60;90.40;;;19.06;57.82;95404.66;4959045;28;20475;-67
2023/07/09 03:48:15;;;;;;;4.57;3.67;;;18.60;90.40;;;19.06;57.83;95409.97;4956690;28;20487;-67
2023/07/09 03:50:44;;;;;;;4.23;3.60;;;18.70;90.40;;;19.06;58.14;95404.66;4963362;28;20544;-61
2023/07/09 03:53:11;;;;;;;5.80;3.70;;;18.60;90.50;;;19.06;58.43;95410.81;4959487;28;21037;-67
2023/07/09 03:55:38;;;;;;;9.97;3.80;;;18.60;90.50;;;19.09;58.46;95410.44;4959602;28;20475;-66
2023/07/09 03:58:07;;;;;;;6.50;4.00;;;18.70;90.60;;;19.10;58.16;95409.44;4957195;28;20573;-67
2023/07/09 04:00:34;;;;;;;4.80;3.27;;;18.70;90.70;;;19.12;58.60;95412.75;4962687;28;20494;-61
2023/07/09 04:03:01;;;;;;;9.70;3.73;;;18.70;90.70;;;19.14;58.55;95417.91;4962359;28;20568;-67
2023/07/09 04:05:29;;;;;;;5.80;3.50;;;18.70;90.90;;;19.16;58.25;95415.88;4963547;28;20483;-66
2023/07/09 04:07:56;;;;;;;3.70;3.40;;;18.70;90.90;;;19.19;58.76;95420.03;4963253;28;20513;-60
2023/07/09 04:10:23;;;;;;;4.10;3.70;;;18.80;91.00;;;19.20;58.15;95419.84;4966061;28;20568;-61
2023/07/09 04:12:51;;;;;;;4.73;3.83;;;18.80;90.90;;;19.23;58.08;95422.16;4966395;28;20460;-62
2023/07/09 04:15:20;;;;;;;16.17;4.40;;;18.80;91.00;;;19.26;58.61;95432.47;4962945;28;20550;-69
2023/07/09 04:17:47;;;;;;;4.37;3.47;;;18.80;90.90;;;19.28;58.91;95430.44;4966634;28;20495;-67
2023/07/09 04:20:15;;;;;;;8.30;4.23;;;18.90;91.30;;;19.29;58.63;95429.44;4967526;28;20471;-62
2023/07/09 04:22:42;;;;;;;5.43;4.17;;;18.90;91.30;;;19.30;58.50;95427.59;4965008;28;20467;-66
2023/07/09 04:25:10;;;;;;;5.33;4.10;;;18.90;91.30;;;19.31;58.58;95431.94;4967842;28;20616;-63
2023/07/09 04:27:38;;;;;;;5.00;3.43;;;18.90;91.40;;;19.34;59.19;95431.56;4967730;28;20464;-68
2023/07/09 04:30:08;;;;;;;6.60;4.10;;;18.90;91.70;;;19.36;59.51;95432.22;4966463;28;20536;-62
2023/07/09 04:32:37;;;;;;;11.27;5.03;;;18.90;91.80;;;19.40;58.99;95432.69;4966767;28;20448;-67
2023/07/09 04:35:06;;;;;;;4.87;3.50;;;18.90;91.70;;;19.43;59.16;95437.69;4967596;28;20558;-68
2023/07/09 04:37:33;;;;;;;6.83;3.73;;;19.00;91.90;;;19.48;59.15;95444.09;4967500;28;20498;-68
2023/07/09 04:40:01;;;;;;;9.43;5.03;;;19.00;91.80;;;19.55;59.64;95444.22;4963022;28;21013;-61
2023/07/09 04:42:28;;;;;;;7.70;4.20;;;19.10;92.00;;;19.60;59.88;95449.84;4966576;28;20460;-61
2023/07/09 04:44:55;;;;;;;6.57;4.07;;;19.10;92.30;;;19.66;58.99;95441.09;4966670;28;21049;-67
2023/07/09 04:47:23;;;;;;;7.80;3.83;;;19.20;92.10;;;19.73;59.19;95441.19;4966209;28;20828;-67
2023/07/09 04:49:51;;;;;;;6.17;3.50;;;19.30;92.20;;;19.80;59.27;95441.31;4966559;28;20559;-60
2023/07/09 04:52:19;;;;;;;9.47;4.40;;;19.30;92.10;;;19.85;59.56;95441.63;4966781;28;20456;-67
2023/07/09 04:54:46;;;;;;;8.80;4.43;;;19.40;92.20;;;19.91;59.61;95440.88;4966146;28;20892;-67
2023/07/09 04:57:13;;;;;;;10.10;4.20;;;19.50;92.30;;;19.96;59.65;95441.16;4966397;28;20563;-61
2023/07/09 04:59:41;;;;;;;8.70;4.90;;;19.50;92.40;;;20.02;59.33;95447.59;4965729;28;21026;-62
2023/07/09 05:02:08;;;;;;;6.70;4.30;;;19.50;92.40;;;20.09;58.99;95443.16;4961188;28;20497;-61
2023/07/09 05:04:35;;;;;;;14.03;4.47;;;19.60;92.30;;;20.17;59.41;95439.56;4965389;28;20479;-63
2023/07/09 05:07:04;;;;;;;4.53;4.13;;;19.70;92.30;;;20.25;59.04;95447.50;4966206;28;20459;-66
2023/07/09 05:09:32;;;;;;;6.70;4.30;;;19.80;92.30;;;20.32;59.09;95459.09;4965924;28;20479;-68
2023/07/09 05:11:59;;;;;;;7.60;4.47;;;19.90;92.40;;;20.42;59.09;95453.47;4962570;28;20447;-67
2023/07/09 05:14:27;;;;;;;7.20;4.00;;;19.90;92.40;;;20.51;59.12;95454.19;4966022;28;20475;-61
2023/07/09 05:16:54;;;;;;;8.33;4.17;;;20.00;92.50;;;20.62;58.63;95453.72;4965695;28;20998;-69
2023/07/09 05:19:22;;;;;;;7.73;4.73;;;20.10;92.50;;;20.74;58.94;95454.06;4966428;28;20600;-61
2023/07/09 05:21:49;;;;;;;9.63;4.30;;;20.20;92.70;;;20.89;59.07;95452.19;4964858;28;21365;-67
2023/07/09 05:24:18;;;;;;;10.00;4.43;;;20.40;92.80;;;21.08;58.74;95458.75;4966168;28;20484;-67
2023/07/09 05:26:45;;;;;;;3.77;3.37;;;20.50;92.70;;;21.28;58.72;95453.56;4966202;28;20463;-61
2023/07/09 05:29:13;;;;;;;13.50;4.40;;;20.70;92.80;;;21.49;58.23;95454.63;4960097;28;21386;-61
2023/07/09 05:31:41;;;;;;;6.40;4.97;;;20.90;92.40;;;21.70;58.02;95463.63;4966184;28;20462;-61
2023/07/09 05:34:09;;;;;;;8.10;4.00;;;21.10;92.40;;;21.92;57.43;95459.03;4967958;28;20498;-61
2023/07/09 05:36:36;;;;;;;16.57;4.63;;;21.30;92.00;;;22.11;56.84;95461.03;4966560;28;20455;-62
2023/07/09 05:39:03;;;;;;;5.57;3.80;;;21.50;91.80;;;22.31;55.66;95455.00;4965662;28;20465;-62
2023/07/09 05:41:32;;;;;;;7.70;4.37;;;21.70;91.10;;;22.49;55.87;95444.53;4965597;28;20460;-66
2023/07/09 05:43:59;;;;;;;5.83;4.03;;;21.90;91.10;;;22.70;54.90;95450.81;4966048;28;20505;-61
2023/07/09 05:46:27;;;;;;;9.20;4.33;;;22.10;90.60;;;22.89;54.60;95455.41;4964322;28;20459;-67
2023/07/09 05:48:54;;;;;;;5.60;3.50;;;22.20;90.20;;;23.07;54.21;95451.31;4964640;28;20447;-66
2023/07/09 05:51:24;;;;;;;7.73;3.80;;;22.40;90.00;;;23.25;52.25;95458.81;4965779;28;20459;-67
2023/07/09 05:53:51;;;;;;;13.20;3.47;;;22.60;88.50;;;23.40;53.46;95456.75;4965861;28;20463;-67
2023/07/09 05:56:19;;;;;;;5.80;4.03;;;22.70;88.30;;;23.57;52.23;95451.81;4965421;28;20499;-60
2023/07/09 05:58:47;;;;;;;14.73;4.20;;;22.90;87.00;;;23.73;52.41;95457.78;4964009;28;20515;-67
2023/07/09 06:01:15;;;;;;;16.40;4.10;;;23.00;86.90;;;23.89;51.58;95454.72;4964696;28;20537;-68
2023/07/09 06:03:42;;;;;;;5.43;4.13;;;23.20;86.70;;;24.06;51.76;95459.63;4964216;28;20467;-68
2023/07/09 06:06:10;;;;;;;10.33;4.17;;;23.40;86.10;;;24.23;50.92;95455.47;4963443;28;20487;-61
2023/07/09 06:08:38;;;;;;;9.40;3.53;;;23.60;85.70;;;24.40;50.73;95455.84;4961708;28;20463;-60
2023/07/09 06:11:05;;;;;;;6.47;3.53;;;23.70;85.20;;;24.55;50.45;95450.19;4965113;28;21070;-60
2023/07/09 06:13:33;;;;;;;8.37;3.80;;;23.90;85.10;;;24.68;49.56;95450.19;4961484;28;20495;-67
2023/07/09 06:16:02;;;;;;;5.97;3.60;;;24.00;83.80;;;24.80;50.18;95446.81;4965289;28;20486;-66
2023/07/09 06:18:30;;;;;;;5.57;3.80;;;24.10;83.70;;;24.95;49.69;95454.59;4966078;28;20497;-69
2023/07/09 06:20:58;;;;;;;4.33;3.83;;;24.20;83.30;;;25.09;49.74;95444.59;4965223;28;20549;-61
2023/07/09 06:23:25;;;;;;;6.40;3.70;;;24.40;82.90;;;25.22;49.38;95442.63;4965980;28;20524;-61
2023/07/09 06:25:53;;;;;;;13.37;2.90;;;24.50;82.70;;;25.37;48.81;95444.22;4964566;28;20478;-61
2023/07/09 06:28:22;;;;;;;5.63;3.73;;;24.60;81.40;;;25.52;48.28;95439.31;4961503;28;20460;-68
2023/07/09 06:30:50;;;;;;;3.93;3.10;;;24.80;81.20;;;25.64;47.52;95439.44;4964295;28;20596;-69
2023/07/09 06:33:19;;;;;;;10.53;3.87;;;24.90;79.20;;;25.77;47.80;95443.88;4963733;28;20554;-60
2023/07/09 06:35:50;;;;;;;8.10;4.77;;;25.00;79.60;;;25.88;46.30;95445.03;4964852;28;20544;-60
2023/07/09 06:38:17;;;;;;;7.27;3.50;;;25.10;77.60;;;25.97;46.69;95442.88;4964536;28;20501;-66
2023/07/09 06:40:45;;;;;;;6.70;4.50;;;25.20;78.70;;;26.09;46.79;95436.56;4965102;28;20471;-60
2023/07/09 06:43:12;;;;;;;7.80;3.67;;;25.40;78.60;;;26.23;46.82;95431.84;4966745;28;20497;-61
2023/07/09 06:45:40;;;;;;;6.47;3.63;;;25.50;78.20;;;26.38;46.83;95442.25;4971294;28;20954;-67
2023/07/09 06:48:07;;;;;;;7.33;3.53;;;25.60;77.90;;;26.52;45.86;95431.31;4962150;28;20541;-61
2023/07/09 06:50:37;;;;;;;4.40;3.63;;;25.70;77.00;;;26.64;45.55;95438.41;4964384;28;20482;-68
2023/07/09 06:53:05;;;;;;;9.93;4.10;;;25.90;76.70;;;26.77;45.38;95442.88;4964737;28;20454;-61
2023/07/09 06:55:32;;;;;;;9.60;3.20;;;26.00;76.20;;;26.90;44.96;95436.47;4964348;28;20551;-62
2023/07/09 06:57:59;;;;;;;10.77;3.77;;;26.10;74.60;;;26.98;44.47;95438.84;4961817;28;20523;-61
2023/07/09 07:00:26;;;;;;;6.30;4.03;;;26.30;75.20;;;27.08;45.22;95432.91;4964088;28;20471;-69
2023/07/09 07:02:54;;;;;;;4.83;2.97;;;26.30;75.60;;;27.17;44.71;95428.81;4962928;28;20455;-68
2023/07/09 07:05:21;;;;;;;4.27;3.10;;;26.40;74.40;;;27.25;44.48;95434.94;4964225;28;21111;-62
2023/07/09 07:07:50;;;;;;;5.27;3.30;;;26.50;73.90;;;27.32;44.09;95435.69;4963877;28;20965;-68
2023/07/09 07:10:17;;;;;;;10.33;3.17;;;26.60;73.20;;;27.41;44.30;95434.31;4964799;28;20528;-61
2023/07/09 07:12:46;;;;;;;3.83;3.50;;;26.70;73.50;;;27.55;43.81;95440.31;4964416;28;20458;-67
2023/07/09 07:15:17;;;;;;;5.13;3.07;;;26.80;73.30;;;27.67;43.30;95432.22;4964770;28;20524;-68
2023/07/09 07:17:45;;;;;;;12.30;3.73;;;26.90;72.20;;;27.79;42.24;95432.22;4964258;28;20486;-62
2023/07/09 07:20:13;;;;;;;8.23;2.83;;;27.00;70.20;;;27.86;43.28;95433.75;4964972;28;20532;-66
2023/07/09 07:22:40;;;;;;;3.80;3.20;;;27.10;71.80;;;27.98;42.86;95441.06;4964615;28;20464;-61
2023/07/09 07:25:09;;;;;;;4.90;3.70;;;27.20;71.40;;;28.09;42.66;95437.56;4964575;28;20471;-68
2023/07/09 07:27:37;;;;;;;12.23;3.70;;;27.30;71.20;;;28.24;42.86;95427.09;4964688;28;20849;-68
2023/07/09 07:30:08;;;;;;;5.40;3.50;;;27.40;71.20;;;28.37;42.95;95431.41;4963973;28;20497;-68
2023/07/09 07:32:37;;;;;;;3.30;3.07;;;27.60;70.70;;;28.51;42.18;95428.44;4963725;28;20816;-69
2023/07/09 07:35:05;;;;;;;5.70;3.23;;;27.70;70.40;;;28.62;42.16;95422.19;4964003;28;20477;-61
2023/07/09 07:37:32;;;;;;;5.90;3.37;;;27.80;69.90;;;28.66;41.81;95411.72;4964518;28;20542;-67
2023/07/09 07:39:59;;;;;;;3.50;3.20;;;27.90;69.30;;;28.68;39.93;95407.72;4963669;28;20479;-68
2023/07/09 07:42:28;;;;;;;7.73;3.33;;;27.90;65.70;;;28.74;40.51;95406.75;4961673;28;20455;-69
2023/07/09 07:44:55;;;;;;;8.33;3.90;;;28.00;67.60;;;28.78;40.90;95417.91;4966214;28;20485;-61
2023/07/09 07:47:23;;;;;;;5.57;3.77;;;28.00;68.20;;;28.83;40.83;95418.03;4967405;28;20447;-68
2023/07/09 07:49:50;;;;;;;4.63;3.43;;;28.00;67.70;;;28.92;40.99;95416.56;4967819;28;20510;-66
2023/07/09 07:52:17;;;;;;;3.53;3.23;;;28.10;67.60;;;29.06;40.49;95421.69;4967711;28;20512;-63
2023/07/09 07:54:45;;;;;;;4.10;3.80;;;28.30;67.20;;;29.17;41.10;95407.25;4967017;28;20231;-63
2023/07/09 07:57:12;;;;;;;5.00;3.20;;;28.40;67.20;;;29.29;40.83;95408.03;4964413;28;20441;-69
2023/07/09 07:59:41;;;;;;;4.03;3.00;;;28.50;66.90;;;29.44;39.65;95410.19;4963097;28;20223;-68
2023/07/09 08:02:12;;;;;;;6.93;3.20;;;28.60;65.40;;;29.54;39.95;95403.28;4966774;28;20216;-63
2023/07/09 08:04:40;;;;;;;3.87;3.33;;;28.70;65.00;;;29.58;39.78;95402.56;4965029;28;20227;-69
2023/07/09 08:07:08;;;;;;;3.83;3.53;;;28.80;64.40;;;29.63;38.84;95399.09;4967671;28;20617;-69
2023/07/09 08:09:35;;;;;;;4.13;2.90;;;28.90;63.80;;;29.72;40.05;95402.22;4967278;28;20227;-69
2023/07/09 08:12:08;;;;;;;5.43;3.90;;;29.00;64.90;;;29.85;38.90;95397.31;4967586;28;20588;-63
2023/07/09 08:14:36;;;;;;;3.40;3.10;;;29.10;63.90;;;30.00;39.25;95404.84;4963603;28;20262;-69
2023/07/09 08:17:05;;;;;;;3.53;3.20;;;29.20;64.00;;;30.15;39.42;95406.97;4967483;28;20207;-61
2023/07/09 08:19:32;;;;;;;6.60;3.20;;;29.40;63.60;;;30.30;38.96;95395.47;4965023;28;20631;-61
2023/07/09 08:22:00;;;;;;;5.90;3.07;;;29.50;63.30;;;30.46;38.57;95410.13;4966909;28;20203;-62
2023/07/09 08:24:27;;;;;;;4.07;3.70;;;29.70;63.30;;;30.61;37.83;95403.22;4966951;28;20290;-62
2023/07/09 08:27:00;;;;;;;11.53;3.27;;;29.80;62.20;;;30.72;38.54;95388.69;4966940;28;20203;-69
2023/07/09 08:29:27;;;;;;;8.73;3.50;;;29.90;62.30;;;30.85;38.49;95396.44;4966428;28;20231;-69
2023/07/09 08:31:54;;;;;;;5.43;3.30;;;30.10;62.50;;;31.01;38.15;95396.63;4966833;28;20199;-68
2023/07/09 08:34:23;;;;;;;5.00;3.40;;;30.20;62.50;;;31.14;37.79;95398.94;4966215;28;20285;-69
2023/07/09 08:36:50;;;;;;;3.83;3.20;;;30.40;62.30;;;31.27;37.55;95395.00;4967025;28;20696;-70
2023/07/09 08:39:18;;;;;;;8.90;3.90;;;30.50;61.50;;;31.35;37.71;95397.22;4963715;28;20235;-69
2023/07/09 08:41:49;;;;;;;5.10;3.70;;;30.60;61.60;;;31.43;37.80;95391.34;4966962;28;20659;-69
2023/07/09 08:44:33;;;;;;;3.05;2.85;;;30.60;61.00;;;31.54;36.59;95396.88;4966526;28;20235;-60
2023/07/09 08:47:05;;;;;;;3.83;3.50;;;30.80;59.60;;;31.61;36.60;95392.84;4964393;28;20677;-68
2023/07/09 08:49:41;;;;;;;5.50;3.92;;;30.80;59.60;;;31.67;37.23;95390.16;4963787;28;20231;-68
2023/07/09 08:52:15;;;;;;;8.13;3.80;;;30.90;59.40;;;31.70;36.32;95390.47;4966400;28;20199;-61
2023/07/09 08:54:43;;;;;;;7.75;4.00;;;30.90;58.80;;;31.73;36.80;95400.84;4966354;28;20240;-68
2023/07/09 08:57:20;;;;;;;4.78;3.85;;;31.00;59.20;;;31.78;36.60;95400.06;4963133;28;20234;-69
2023/07/09 08:59:47;;;;;;;3.60;2.92;;;31.00;59.20;;;31.87;36.49;95395.78;4965686;28;20231;-63
2023/07/09 09:02:21;;;;;;;4.63;4.00;;;31.10;58.90;;;31.94;36.54;95398.25;4962389;28;20245;-70
2023/07/09 09:04:50;;;;;;;3.10;2.90;;;31.20;58.80;;;31.98;36.37;95394.75;4966188;28;20238;-71
2023/07/09 09:07:20;;;;;;;3.15;2.88;;;31.30;58.30;;;32.08;36.01;95395.91;4966154;28;20593;-63
2023/07/09 09:09:50;;;;;;;5.00;3.80;;;31.30;58.40;;;32.15;36.23;95400.06;4966576;28;20235;-68
2023/07/09 09:12:19;;;;;;;6.18;2.97;;;31.40;58.40;;;32.22;36.28;95396.28;4966583;28;20276;-63
2023/07/09 09:14:50;;;;;;;3.30;2.80;;;31.40;58.10;;;32.31;36.25;95398.22;4966923;28;20306;-68
2023/07/09 09:17:20;;;;;;;6.35;4.10;;;31.50;58.10;;;32.37;36.20;95404.53;4963690;28;20204;-62
2023/07/09 09:19:53;;;;;;;7.72;4.28;;;31.60;58.30;;;32.39;35.44;95399.63;4966387;28;20610;-69
2023/07/09 09:22:24;;;;;;;7.13;3.25;;;31.60;56.90;;;32.40;35.56;95401.28;4962892;28;20782;-61
2023/07/09 09:24:59;;;;;;;3.70;3.40;;;31.60;56.90;;;32.44;35.38;95399.66;4966192;28;20224;-70
2023/07/09 09:27:26;;;;;;;4.15;2.90;;;31.70;57.40;;;32.52;35.19;95396.41;4964950;28;20207;-69
2023/07/09 09:29:53;;;;;;;16.05;8.27;;;31.70;56.20;;;32.56;35.22;95398.63;4966602;28;20795;-69
2023/07/09 09:32:24;;;;;;;8.02;3.88;;;31.80;56.80;;;32.55;34.91;95399.69;4962036;28;20265;-69
2023/07/09 09:34:53;;;;;;;4.78;4.22;;;31.80;56.20;;;32.54;35.09;95398.88;4964314;28;20289;-62
2023/07/09 09:37:28;;;;;;;6.75;4.30;;;31.80;56.30;;;32.51;34.00;95400.22;4966396;28;20212;-69
2023/07/09 09:39:55;;;;;;;4.43;3.60;;;31.80;55.20;;;32.49;34.80;95388.78;4962528;28;20325;-69
2023/07/09 09:42:25;;;;;;;9.73;3.00;;;31.70;55.20;;;32.48;34.55;95389.84;4966675;28;20200;-69
2023/07/09 09:44:55;;;;;;;15.68;3.63;;;31.80;55.40;;;32.49;34.15;95385.25;4965890;28;20259;-70
2023/07/09 09:47:23;;;;;;;6.07;3.42;;;31.80;55.10;;;32.40;34.20;95384.13;4962536;28;20226;-69
2023/07/09 09:49:52;;;;;;;7.22;3.83;;;31.70;54.70;;;32.39;34.38;95385.19;4965926;28;20236;-63
2023/07/09 09:52:20;;;;;;;3.72;3.53;;;31.70;55.00;;;32.35;34.37;95382.19;4966074;28;20211;-60
2023/07/09 09:54:52;;;;;;;5.30;3.97;;;31.70;55.00;;;32.34;34.61;95372.38;4965773;28;20239;-61
2023/07/09 09:57:22;;;;;;;4.68;3.35;;;31.60;55.00;;;32.27;34.64;95383.53;4965502;28;20249;-69
2023/07/09 09:59:49;;;;;;;11.00;3.60;;;31.60;54.60;;;32.19;34.47;95375.84;4962618;28;20281;-70
2023/07/09 10:02:18;;;;;;;6.03;4.32;;;31.50;54.60;;;32.16;34.99;95376.38;4964969;28;20200;-68
2023/07/09 10:04:46;;;;;;;3.80;3.22;;;31.50;55.40;;;32.20;35.05;95376.69;4965932;28;20281;-69
2023/07/09 10:07:22;;;;;;;6.38;3.35;;;31.40;55.40;;;32.20;33.59;95369.31;4965017;28;20226;-61
2023/07/09 10:09:52;;;;;;;4.15;3.85;;;31.40;53.80;;;32.14;34.34;95373.91;4964369;28;21085;-61
2023/07/09 10:12:33;;;;;;;4.45;2.97;;;31.40;54.60;;;32.07;33.84;95367.88;4962147;28;20277;-62
2023/07/09 10:15:02;;;;;;;4.78;2.90;;;31.40;54.20;;;32.00;34.38;95367.28;4963613;28;20773;-70
2023/07/09 10:17:36;;;;;;;3.67;2.85;;;31.30;54.50;;;31.96;34.76;95363.44;4985508;28;20195;-62
2023/07/09 10:20:08;;;;;;;4.63;3.50;;;31.20;55.50;;;31.96;34.36;95360.72;4977906;28;20234;-61
2023/07/09 10:22:51;;;;;;;12.23;3.83;;;31.20;54.90;;;31.93;33.25;95367.50;4961077;28;20211;-61
2023/07/09 10:25:30;;;;;;;4.93;3.72;;;31.20;52.70;;;31.83;34.18;95364.72;4951043;28;20297;-62